createdAt,value
2023-01-30T00:01:30.547Z,2.50
2023-01-30T00:03:58.721Z,2.50
2023-01-30T00:06:27.258Z,2.60
2023-01-30T00:08:55.747Z,2.50
2023-01-30T00:11:25.364Z,2.50
2023-01-30T00:13:53.548Z,2.50
2023-01-30T00:16:21.819Z,2.50
2023-01-30T00:18:50.717Z,2.50
2023-01-30T00:21:19.242Z,2.50
2023-01-30T00:23:47.462Z,2.50
2023-01-30T00:26:15.681Z,2.50
2023-01-30T00:28:45.263Z,2.50
2023-01-30T00:31:13.485Z,2.50
2023-01-30T00:33:41.769Z,2.50
2023-01-30T00:36:11.570Z,2.50
2023-01-30T00:38:39.754Z,2.60
2023-01-30T00:41:10.740Z,2.50
2023-01-30T00:43:56.273Z,2.60
2023-01-30T00:46:47.541Z,2.60
2023-01-30T00:49:16.184Z,2.60
2023-01-30T00:51:44.379Z,2.50
2023-01-30T00:54:12.656Z,2.40
2023-01-30T00:56:40.806Z,2.50
2023-01-30T00:59:12.102Z,2.50
2023-01-30T01:01:42.000Z,2.50
2023-01-30T01:04:11.846Z,2.50
2023-01-30T01:06:40.270Z,2.50
2023-01-30T01:09:10.887Z,2.40
2023-01-30T01:11:39.088Z,2.40
2023-01-30T01:14:08.761Z,2.40
2023-01-30T01:16:37.691Z,2.40
2023-01-30T01:19:07.321Z,2.40
2023-01-30T01:21:35.522Z,2.50
2023-01-30T01:24:06.557Z,2.50
2023-01-30T01:26:35.329Z,2.50
2023-01-30T01:29:04.176Z,2.50
2023-01-30T01:31:35.488Z,2.60
2023-01-30T01:34:03.731Z,2.50
2023-01-30T01:36:52.729Z,2.60
2023-01-30T01:39:21.453Z,2.60
2023-01-30T01:41:51.927Z,2.60
2023-01-30T01:44:22.384Z,2.60
2023-01-30T01:46:54.460Z,2.60
2023-01-30T01:49:25.921Z,2.60
2023-01-30T01:52:00.101Z,2.60
2023-01-30T01:54:35.996Z,2.60
2023-01-30T01:57:11.966Z,2.70
2023-01-30T01:59:47.347Z,2.70
2023-01-30T02:02:18.200Z,2.70
2023-01-30T02:05:04.720Z,2.70
2023-01-30T02:07:38.932Z,2.70
2023-01-30T02:10:09.691Z,2.50
2023-01-30T02:12:39.241Z,2.60
2023-01-30T02:15:08.985Z,2.60
2023-01-30T02:17:37.211Z,2.70
2023-01-30T02:20:12.028Z,2.60
2023-01-30T02:23:09.084Z,2.60
2023-01-30T02:26:09.846Z,2.60
2023-01-30T02:28:57.330Z,2.60
2023-01-30T02:31:36.942Z,2.60
2023-01-30T02:34:21.560Z,2.70
2023-01-30T02:36:56.739Z,2.70
2023-01-30T02:39:36.781Z,2.70
2023-01-30T02:42:24.875Z,2.70
2023-01-30T02:45:00.800Z,2.70
2023-01-30T02:47:35.632Z,2.70
2023-01-30T02:50:08.971Z,2.70
2023-01-30T02:52:38.589Z,2.70
2023-01-30T02:55:18.804Z,2.70
2023-01-30T02:57:47.630Z,2.60
2023-01-30T03:00:23.488Z,2.70
2023-01-30T03:03:10.968Z,2.60
2023-01-30T03:06:03.425Z,2.60
2023-01-30T03:08:40.676Z,2.60
2023-01-30T03:11:10.687Z,2.60
2023-01-30T03:13:49.061Z,2.60
2023-01-30T03:16:22.353Z,2.60
2023-01-30T03:18:52.282Z,2.50
2023-01-30T03:21:20.962Z,2.60
2023-01-30T03:23:49.295Z,2.50
2023-01-30T03:26:21.214Z,2.50
2023-01-30T03:28:52.099Z,2.50
2023-01-30T03:31:21.621Z,2.60
2023-01-30T03:33:51.301Z,2.50
2023-01-30T03:36:19.932Z,2.50
2023-01-30T03:38:48.261Z,2.50
2023-01-30T03:41:16.490Z,2.50
2023-01-30T03:43:45.014Z,2.40
2023-01-30T03:46:13.263Z,2.40
2023-01-30T03:48:41.487Z,2.40
2023-01-30T03:51:14.756Z,2.40
2023-01-30T03:53:43.045Z,2.50
2023-01-30T03:56:13.044Z,2.40
2023-01-30T03:58:41.295Z,2.40
2023-01-30T04:01:32.098Z,2.30
2023-01-30T04:04:00.504Z,2.30
2023-01-30T04:06:32.666Z,2.30
2023-01-30T04:09:01.254Z,2.30
2023-01-30T04:11:43.562Z,2.20
2023-01-30T04:14:12.267Z,2.20
2023-01-30T04:16:54.892Z,2.20
2023-01-30T04:19:46.284Z,2.20
2023-01-30T04:22:16.410Z,2.20
2023-01-30T04:24:44.663Z,2.20
2023-01-30T04:27:13.105Z,2.10
2023-01-30T04:29:54.826Z,2.10
2023-01-30T04:32:23.030Z,2.00
2023-01-30T04:34:51.221Z,2.10
2023-01-30T04:37:20.818Z,2.10
2023-01-30T04:39:49.997Z,2.10
2023-01-30T04:42:18.313Z,2.10
2023-01-30T04:45:02.717Z,2.10
2023-01-30T04:47:31.026Z,2.10
2023-01-30T04:49:59.276Z,2.10
2023-01-30T04:52:28.860Z,2.10
2023-01-30T04:54:57.056Z,2.10
2023-01-30T04:57:25.359Z,2.10
2023-01-30T04:59:53.598Z,2.10
2023-01-30T05:02:23.156Z,2.10
2023-01-30T05:04:52.319Z,2.10
2023-01-30T05:07:20.495Z,2.00
2023-01-30T05:09:50.107Z,2.00
2023-01-30T05:12:18.338Z,2.00
2023-01-30T05:14:46.927Z,2.00
2023-01-30T05:17:15.237Z,2.00
2023-01-30T05:19:43.428Z,2.00
2023-01-30T05:22:12.358Z,2.00
2023-01-30T05:24:43.029Z,2.00
2023-01-30T05:27:12.642Z,2.00
2023-01-30T05:29:40.858Z,1.90
2023-01-30T05:32:09.289Z,2.00
2023-01-30T05:34:37.518Z,2.00
2023-01-30T05:37:05.777Z,2.00
2023-01-30T05:39:34.103Z,2.00
2023-01-30T05:42:02.304Z,2.00
2023-01-30T05:44:31.899Z,2.00
2023-01-30T05:47:00.140Z,1.90
2023-01-30T05:49:28.389Z,1.80
2023-01-30T05:51:56.616Z,1.90
2023-01-30T05:54:25.177Z,1.80
2023-01-30T05:56:55.791Z,1.90
2023-01-30T05:59:24.261Z,1.90
2023-01-30T06:01:56.341Z,1.90
2023-01-30T06:04:24.702Z,1.90
2023-01-30T06:06:52.952Z,1.90
2023-01-30T06:09:21.179Z,2.00
2023-01-30T06:11:49.327Z,2.00
2023-01-30T06:14:17.492Z,2.00
2023-01-30T06:16:47.974Z,1.90
2023-01-30T06:19:17.524Z,2.00
2023-01-30T06:21:45.745Z,2.00
2023-01-30T06:24:14.119Z,1.90
2023-01-30T06:26:42.330Z,1.90
2023-01-30T06:29:10.578Z,1.90
2023-01-30T06:31:38.879Z,1.90
2023-01-30T06:34:09.239Z,1.90
2023-01-30T06:36:39.065Z,1.90
2023-01-30T06:39:07.196Z,2.00
2023-01-30T06:41:35.381Z,2.00
2023-01-30T06:44:03.542Z,2.00
2023-01-30T06:46:31.842Z,2.00
2023-01-30T06:49:00.034Z,2.00
2023-01-30T06:51:28.274Z,2.00
2023-01-30T06:53:57.804Z,2.00
2023-01-30T06:56:25.954Z,2.00
2023-01-30T06:58:54.669Z,2.00
2023-01-30T07:01:23.039Z,2.10
2023-01-30T07:03:51.291Z,2.00
2023-01-30T07:06:20.087Z,2.00
2023-01-30T07:08:48.268Z,2.00
2023-01-30T07:11:17.925Z,2.00
2023-01-30T07:13:46.202Z,2.00
2023-01-30T07:16:16.832Z,2.00
2023-01-30T07:18:46.228Z,2.10
2023-01-30T07:21:14.375Z,2.10
2023-01-30T07:23:43.790Z,2.00
2023-01-30T07:26:12.023Z,2.00
2023-01-30T07:28:41.579Z,2.00
2023-01-30T07:31:09.761Z,2.00
2023-01-30T07:33:37.965Z,2.00
2023-01-30T07:36:06.612Z,2.00
2023-01-30T07:38:34.790Z,1.90
2023-01-30T07:41:02.982Z,2.00
2023-01-30T07:43:31.261Z,2.00
2023-01-30T07:46:02.853Z,1.90
2023-01-30T07:48:33.345Z,1.70
2023-01-30T07:51:01.482Z,1.70
2023-01-30T07:53:29.664Z,1.70
2023-01-30T07:55:57.820Z,1.60
2023-01-30T07:58:26.017Z,1.60
2023-01-30T08:00:56.654Z,1.60
2023-01-30T08:03:26.253Z,1.50
2023-01-30T08:05:54.634Z,1.60
2023-01-30T08:08:22.863Z,1.50
2023-01-30T08:10:53.558Z,1.50
2023-01-30T08:13:21.792Z,1.40
2023-01-30T08:15:50.345Z,1.30
2023-01-30T08:18:18.876Z,1.40
2023-01-30T08:20:48.616Z,1.30
2023-01-30T08:23:16.756Z,1.30
2023-01-30T08:25:48.035Z,1.30
2023-01-30T08:28:16.267Z,1.30
2023-01-30T08:30:45.153Z,1.30
2023-01-30T08:33:13.433Z,1.30
2023-01-30T08:35:41.703Z,1.40
2023-01-30T08:38:13.878Z,1.40
2023-01-30T08:40:42.310Z,1.30
2023-01-30T08:43:12.571Z,1.40
2023-01-30T08:45:40.782Z,1.40
2023-01-30T08:48:09.040Z,1.30
2023-01-30T08:50:37.683Z,1.40
2023-01-30T08:53:06.975Z,1.40
2023-01-30T08:55:36.563Z,1.40
2023-01-30T08:58:04.752Z,1.40
2023-01-30T09:00:33.075Z,1.40
2023-01-30T09:03:02.013Z,1.40
2023-01-30T09:05:30.931Z,1.40
2023-01-30T09:07:59.253Z,1.40
2023-01-30T09:10:27.659Z,1.50
2023-01-30T09:12:57.364Z,1.40
2023-01-30T09:15:27.859Z,1.40
2023-01-30T09:17:56.034Z,1.40
2023-01-30T09:20:25.744Z,1.50
2023-01-30T09:22:54.088Z,1.50
2023-01-30T09:25:22.314Z,1.40
2023-01-30T09:27:51.642Z,1.40
2023-01-30T09:30:21.842Z,1.40
2023-01-30T09:32:50.263Z,1.40
2023-01-30T09:35:18.913Z,1.50
2023-01-30T09:37:51.863Z,1.50
2023-01-30T09:40:23.559Z,1.50
2023-01-30T09:43:15.273Z,1.50
2023-01-30T09:46:06.950Z,1.40
2023-01-30T09:48:42.414Z,1.50
2023-01-30T09:51:43.943Z,1.50
2023-01-30T09:54:24.525Z,1.60
2023-01-30T09:57:02.597Z,1.60
2023-01-30T09:59:40.739Z,1.60
2023-01-30T10:02:30.235Z,1.50
2023-01-30T10:05:02.089Z,1.50
2023-01-30T10:07:46.932Z,1.50
2023-01-30T10:10:22.840Z,1.50
2023-01-30T10:13:04.934Z,1.60
2023-01-30T10:15:46.123Z,1.60
2023-01-30T10:18:32.692Z,1.60
2023-01-30T10:21:10.864Z,1.60
2023-01-30T10:24:16.519Z,1.60
2023-01-30T10:26:45.489Z,1.60
2023-01-30T10:29:19.536Z,1.60
2023-01-30T10:31:51.574Z,1.70
2023-01-30T10:34:26.517Z,1.80
2023-01-30T10:37:01.207Z,1.70
2023-01-30T10:39:54.223Z,1.60
2023-01-30T10:42:29.608Z,1.70
2023-01-30T10:45:07.441Z,1.80
2023-01-30T10:47:50.418Z,1.70
2023-01-30T10:50:22.622Z,1.60
2023-01-30T10:52:58.875Z,1.70
2023-01-30T10:55:37.767Z,1.60
2023-01-30T10:58:16.469Z,1.60
2023-01-30T11:00:48.166Z,1.60
2023-01-30T11:03:29.617Z,1.70
2023-01-30T11:06:02.407Z,1.70
2023-01-30T11:08:33.201Z,1.70
2023-01-30T11:11:02.388Z,1.70
2023-01-30T11:13:32.385Z,1.70
2023-01-30T11:16:05.201Z,1.80
2023-01-30T11:19:17.822Z,1.80
2023-01-30T11:21:42.088Z,1.80
2023-01-30T11:24:17.235Z,1.80
2023-01-30T11:26:48.156Z,1.90
2023-01-30T11:29:24.758Z,1.90
2023-01-30T11:32:04.208Z,2.00
2023-01-30T11:34:32.554Z,2.10
2023-01-30T11:37:16.421Z,2.20
2023-01-30T11:39:53.454Z,2.30
2023-01-30T11:42:25.622Z,2.30
2023-01-30T11:45:10.640Z,2.40
2023-01-30T11:48:05.159Z,2.50
2023-01-30T11:50:42.525Z,2.50
2023-01-30T11:53:28.799Z,2.50
2023-01-30T11:56:05.685Z,2.60
2023-01-30T11:58:40.322Z,2.60
2023-01-30T12:01:11.555Z,2.60
2023-01-30T12:03:49.677Z,2.60
2023-01-30T12:06:25.267Z,2.60
2023-01-30T12:08:56.136Z,2.60
2023-01-30T12:11:44.886Z,2.50
2023-01-30T12:14:38.357Z,2.50
2023-01-30T12:17:13.418Z,2.40
2023-01-30T12:19:53.219Z,2.40
2023-01-30T12:22:43.791Z,2.30
2023-01-30T12:25:20.275Z,2.30
2023-01-30T12:33:07.817Z,2.30
2023-01-30T12:35:58.672Z,2.30
2023-01-30T12:38:39.868Z,2.30
2023-01-30T12:41:37.376Z,2.40
2023-01-30T12:44:35.730Z,2.40
2023-01-30T12:47:31.788Z,2.40
2023-01-30T12:50:16.904Z,2.40
2023-01-30T12:53:07.630Z,2.30
2023-01-30T12:55:45.488Z,2.40
2023-01-30T12:58:20.448Z,2.50
2023-01-30T13:01:07.940Z,2.50
2023-01-30T13:03:43.153Z,2.50
2023-01-30T13:06:33.384Z,2.50
2023-01-30T13:09:16.238Z,2.50
2023-01-30T13:11:53.138Z,2.50
2023-01-30T13:14:30.120Z,2.60
2023-01-30T13:17:13.215Z,2.60
2023-01-30T13:19:48.374Z,2.70
2023-01-30T13:22:22.703Z,2.70
2023-01-30T13:25:01.563Z,2.70
2023-01-30T13:27:30.622Z,2.70
2023-01-30T13:30:01.774Z,2.80
2023-01-30T13:32:38.745Z,2.80
2023-01-30T13:35:15.416Z,2.90
2023-01-30T13:37:45.288Z,2.80
2023-01-30T13:40:19.106Z,2.80
2023-01-30T13:42:52.355Z,2.80
2023-01-30T13:45:24.546Z,2.90
2023-01-30T13:48:06.851Z,2.90
2023-01-30T13:50:50.286Z,2.90
2023-01-30T13:53:24.776Z,2.90
2023-01-30T13:55:57.452Z,2.80
2023-01-30T13:58:44.083Z,2.90
2023-01-30T14:01:14.840Z,2.90
2023-01-30T14:03:44.254Z,2.90
2023-01-30T14:06:28.925Z,2.90
2023-01-30T14:09:00.132Z,2.90
2023-01-30T14:11:37.315Z,3.00
2023-01-30T14:14:25.765Z,3.00
2023-01-30T14:16:57.642Z,3.10
2023-01-30T14:19:36.724Z,3.10
2023-01-30T14:22:21.396Z,3.10
2023-01-30T14:25:35.424Z,3.10
2023-01-30T14:28:49.009Z,3.20
2023-01-30T14:31:56.447Z,3.20
2023-01-30T14:34:51.086Z,3.30
2023-01-30T14:37:50.781Z,3.20
2023-01-30T14:40:40.153Z,3.20
2023-01-30T14:43:40.598Z,3.30
2023-01-30T14:46:34.098Z,3.30
2023-01-30T14:49:14.579Z,3.30
2023-01-30T14:51:47.988Z,3.30
2023-01-30T14:54:30.268Z,3.30
2023-01-30T14:57:05.665Z,3.20
2023-01-30T14:59:37.664Z,3.20
2023-01-30T15:02:21.676Z,3.20
2023-01-30T15:05:02.859Z,3.30
2023-01-30T15:07:39.448Z,3.20
2023-01-30T15:10:21.049Z,3.30
2023-01-30T15:13:11.110Z,3.20
2023-01-30T15:15:48.184Z,3.20
2023-01-30T15:18:29.582Z,3.30
2023-01-30T15:21:20.145Z,3.30
2023-01-30T15:24:05.528Z,3.30
2023-01-30T15:26:44.993Z,3.30
2023-01-30T15:29:45.623Z,3.30
2023-01-30T15:32:19.256Z,3.30
2023-01-30T15:34:52.284Z,3.30
2023-01-30T15:37:35.708Z,3.20
2023-01-30T15:40:29.864Z,3.20
2023-01-30T15:43:15.370Z,3.20
2023-01-30T15:45:59.648Z,3.30
2023-01-30T15:48:54.476Z,3.30
2023-01-30T15:51:27.176Z,3.30
2023-01-30T15:53:57.821Z,3.30
2023-01-30T15:56:30.838Z,3.30
2023-01-30T15:59:01.387Z,3.30
2023-01-30T16:01:30.421Z,3.30
2023-01-30T16:04:00.460Z,3.30
2023-01-30T16:06:33.579Z,3.30
2023-01-30T16:09:04.219Z,3.30
2023-01-30T16:11:42.092Z,3.40
2023-01-30T16:14:14.372Z,3.40
2023-01-30T16:16:47.492Z,3.40
2023-01-30T16:19:22.575Z,3.40
2023-01-30T16:21:51.145Z,3.40
2023-01-30T16:24:24.884Z,3.40
2023-01-30T16:26:59.321Z,3.50
2023-01-30T16:29:32.129Z,3.50
2023-01-30T16:32:01.072Z,3.50
2023-01-30T16:34:32.324Z,3.50
2023-01-30T16:37:07.721Z,3.50
2023-01-30T16:39:37.827Z,3.50
2023-01-30T16:42:23.503Z,3.60
2023-01-30T16:44:51.794Z,3.60
2023-01-30T16:47:26.028Z,3.60
2023-01-30T16:49:55.889Z,3.60
2023-01-30T16:52:27.146Z,3.70
2023-01-30T16:54:58.257Z,3.70
2023-01-30T16:57:37.031Z,3.70
2023-01-30T17:00:21.334Z,3.70
2023-01-30T17:02:55.414Z,3.70
2023-01-30T17:05:26.362Z,3.70
2023-01-30T17:07:57.797Z,3.80
2023-01-30T17:11:02.603Z,3.80
2023-01-30T17:13:42.063Z,3.70
2023-01-30T17:16:28.390Z,3.80
2023-01-30T17:18:58.327Z,3.80
2023-01-30T17:21:30.494Z,3.80
2023-01-30T17:24:02.321Z,3.80
2023-01-30T17:26:31.536Z,3.80
2023-01-30T17:29:01.323Z,3.80
2023-01-30T17:31:29.544Z,3.80
2023-01-30T17:33:57.880Z,3.80
2023-01-30T17:36:30.124Z,3.80
2023-01-30T17:39:00.265Z,3.90
2023-01-30T17:41:30.942Z,3.90
2023-01-30T17:43:59.186Z,4.00
2023-01-30T17:46:36.561Z,3.90
2023-01-30T17:49:05.020Z,4.00
2023-01-30T17:51:33.327Z,4.00
2023-01-30T17:54:01.541Z,4.00
2023-01-30T17:56:35.273Z,4.10
2023-01-30T17:59:05.709Z,4.10
2023-01-30T18:01:35.446Z,4.10
2023-01-30T18:04:03.645Z,4.10
2023-01-30T18:06:32.229Z,4.10
2023-01-30T18:09:00.429Z,4.10
2023-01-30T18:11:28.592Z,4.00
2023-01-30T18:13:59.819Z,4.10
2023-01-30T18:16:31.146Z,4.10
2023-01-30T18:19:04.043Z,4.10
2023-01-30T18:21:32.955Z,4.10
2023-01-30T18:24:01.371Z,4.10
2023-01-30T18:26:30.919Z,4.10
2023-01-30T18:28:59.494Z,4.20
2023-01-30T18:31:31.491Z,4.10
2023-01-30T18:34:01.069Z,4.10
2023-01-30T18:36:35.009Z,4.10
2023-01-30T18:39:03.575Z,4.20
2023-01-30T18:41:32.051Z,4.20
2023-01-30T18:44:01.739Z,4.20
2023-01-30T18:46:30.909Z,4.20
2023-01-30T18:49:00.807Z,4.30
2023-01-30T18:51:30.623Z,4.30
2023-01-30T18:53:59.859Z,4.20
2023-01-30T18:56:32.663Z,4.30
2023-01-30T18:59:03.914Z,4.30
2023-01-30T19:01:35.627Z,4.30
2023-01-30T19:04:06.809Z,4.30
2023-01-30T19:06:37.615Z,4.30
2023-01-30T19:09:06.388Z,4.20
2023-01-30T19:11:52.375Z,4.20
2023-01-30T19:14:20.574Z,4.10
2023-01-30T19:16:50.295Z,4.20
2023-01-30T19:19:20.020Z,4.30
2023-01-30T19:21:49.803Z,4.20
2023-01-30T19:24:19.029Z,4.20
2023-01-30T19:26:47.294Z,4.20
2023-01-30T19:29:15.511Z,4.20
2023-01-30T19:31:43.989Z,4.20
2023-01-30T19:34:13.276Z,4.20
2023-01-30T19:36:42.804Z,4.20
2023-01-30T19:39:11.569Z,4.10
2023-01-30T19:41:39.835Z,4.10
2023-01-30T19:44:09.619Z,4.10
2023-01-30T19:46:37.856Z,4.20
2023-01-30T19:49:06.337Z,4.20
2023-01-30T19:51:36.026Z,4.20
2023-01-30T19:54:07.872Z,4.20
2023-01-30T19:56:37.349Z,4.10
2023-01-30T19:59:06.134Z,4.20
2023-01-30T20:01:37.663Z,4.10
2023-01-30T20:04:06.525Z,4.10
2023-01-30T20:06:35.863Z,4.20
2023-01-30T20:09:07.384Z,4.10
2023-01-30T20:11:37.112Z,4.10
2023-01-30T20:14:07.136Z,4.20
2023-01-30T20:16:36.392Z,4.10
2023-01-30T20:19:06.367Z,4.20
2023-01-30T20:21:37.208Z,4.20
2023-01-30T20:24:08.194Z,4.20
2023-01-30T20:26:39.830Z,4.20
2023-01-30T20:29:09.654Z,4.20
2023-01-30T20:31:39.642Z,4.20
2023-01-30T20:34:11.514Z,4.10
2023-01-30T20:36:39.748Z,4.00
2023-01-30T20:39:09.381Z,4.00
2023-01-30T20:41:38.749Z,4.10
2023-01-30T20:44:08.868Z,4.10
2023-01-30T20:46:41.413Z,4.10
2023-01-30T20:49:14.068Z,4.20
2023-01-30T20:51:42.600Z,4.10
2023-01-30T20:54:13.387Z,4.20
2023-01-30T20:56:43.917Z,4.20
2023-01-30T20:59:14.247Z,4.20
2023-01-30T21:01:42.680Z,4.20
2023-01-30T21:04:13.686Z,4.20
2023-01-30T21:06:45.788Z,4.20
2023-01-30T21:09:26.956Z,4.20
2023-01-30T21:11:56.346Z,4.20
2023-01-30T21:14:26.509Z,4.20
2023-01-30T21:16:55.055Z,4.20
2023-01-30T21:19:23.358Z,4.20
2023-01-30T21:21:54.249Z,4.30
2023-01-30T21:24:26.770Z,4.30
2023-01-30T21:26:55.809Z,4.30
2023-01-30T21:29:28.313Z,4.20
2023-01-30T21:32:02.025Z,4.20
2023-01-30T21:34:30.409Z,4.20
2023-01-30T21:37:18.732Z,4.20
2023-01-30T21:40:05.871Z,4.20
2023-01-30T21:42:51.745Z,4.20
2023-01-30T21:45:22.571Z,4.20
2023-01-30T21:47:54.304Z,4.10
2023-01-30T21:50:22.759Z,4.20
2023-01-30T21:52:51.283Z,4.20
2023-01-30T21:55:21.149Z,4.10
2023-01-30T21:57:49.739Z,4.10
2023-01-30T22:00:18.439Z,4.10
2023-01-30T22:02:50.030Z,4.10
2023-01-30T22:05:18.921Z,4.10
2023-01-30T22:07:47.587Z,4.10
2023-01-30T22:10:15.930Z,4.10
2023-01-30T22:12:48.448Z,4.10
2023-01-30T22:15:17.863Z,4.00
2023-01-30T22:17:46.786Z,4.00
2023-01-30T22:20:15.547Z,4.00
2023-01-30T22:22:45.756Z,4.00
2023-01-30T22:25:16.839Z,4.00
2023-01-30T22:27:49.227Z,3.90
2023-01-30T22:30:20.723Z,4.00
2023-01-30T22:32:48.899Z,4.00
2023-01-30T22:35:21.845Z,4.00
2023-01-30T22:37:52.604Z,3.90
2023-01-30T22:40:23.340Z,3.90
2023-01-30T22:42:54.904Z,4.00
2023-01-30T22:45:23.154Z,4.00
2023-01-30T22:47:54.415Z,4.00
2023-01-30T22:50:22.969Z,4.00
2023-01-30T22:52:51.208Z,4.00
2023-01-30T22:55:19.716Z,4.10
2023-01-30T22:57:54.594Z,4.10
2023-01-30T23:00:25.264Z,4.10
2023-01-30T23:02:56.919Z,4.10
2023-01-30T23:05:25.085Z,4.20
2023-01-30T23:07:53.220Z,4.20
2023-01-30T23:10:24.440Z,4.20
2023-01-30T23:13:09.768Z,4.10
2023-01-30T23:15:42.858Z,4.20
2023-01-30T23:18:28.811Z,4.10
2023-01-30T23:20:59.972Z,4.10
2023-01-30T23:23:33.093Z,4.10
2023-01-30T23:26:03.231Z,4.20
2023-01-30T23:28:33.108Z,4.20
2023-01-30T23:31:07.927Z,4.20
2023-01-30T23:33:36.521Z,4.20
2023-01-30T23:36:06.054Z,4.20
2023-01-30T23:38:34.400Z,4.20
2023-01-30T23:41:08.036Z,4.10
2023-01-30T23:43:40.876Z,4.10
2023-01-30T23:46:14.550Z,4.10
2023-01-30T23:48:45.959Z,4.10
2023-01-30T23:51:15.056Z,4.10
2023-01-30T23:53:44.085Z,4.00
2023-01-30T23:56:15.853Z,4.00
2023-01-30T23:58:46.366Z,4.10
